createdAt,value
2022-08-14T00:02:27.416Z,17.15
2022-08-14T00:04:56.435Z,17.13
2022-08-14T00:07:24.503Z,17.09
2022-08-14T00:10:02.562Z,17.04
2022-08-14T00:12:48.226Z,16.98
2022-08-14T00:15:37.343Z,16.94
2022-08-14T00:19:06.894Z,16.89
2022-08-14T00:21:03.326Z,16.85
2022-08-14T00:23:31.242Z,16.82
2022-08-14T00:26:06.704Z,16.79
2022-08-14T00:28:50.591Z,16.77
2022-08-14T00:31:20.073Z,16.74
2022-08-14T00:34:36.064Z,16.72
2022-08-14T00:36:51.841Z,16.70
2022-08-14T00:39:21.589Z,16.69
2022-08-14T00:41:49.897Z,16.68
2022-08-14T00:44:21.397Z,16.66
2022-08-14T00:47:06.243Z,16.65
2022-08-14T00:49:43.380Z,16.65
2022-08-14T00:52:17.787Z,16.65
2022-08-14T00:54:58.026Z,16.64
2022-08-14T00:57:29.178Z,16.64
2022-08-14T00:59:57.583Z,16.62
2022-08-14T01:02:27.669Z,16.60
2022-08-14T01:05:07.789Z,16.57
2022-08-14T01:07:38.811Z,16.54
2022-08-14T01:10:16.881Z,16.51
2022-08-14T01:12:47.876Z,16.48
2022-08-14T01:15:17.566Z,16.45
2022-08-14T01:18:04.673Z,16.40
2022-08-14T01:20:52.223Z,16.36
2022-08-14T01:23:21.780Z,16.33
2022-08-14T01:25:51.276Z,16.29
2022-08-14T01:28:46.132Z,16.25
2022-08-14T01:31:16.549Z,16.22
2022-08-14T01:35:15.773Z,16.19
2022-08-14T01:36:39.333Z,16.15
2022-08-14T01:39:14.231Z,16.12
2022-08-14T01:41:44.700Z,16.10
2022-08-14T01:44:32.458Z,16.07
2022-08-14T01:47:12.498Z,16.05
2022-08-14T01:50:00.009Z,16.02
2022-08-14T01:52:58.612Z,16.00
2022-08-14T01:55:32.369Z,15.97
2022-08-14T01:58:19.851Z,15.95
2022-08-14T02:00:57.052Z,15.93
2022-08-14T02:03:30.957Z,15.90
2022-08-14T02:06:03.808Z,15.87
2022-08-14T02:08:52.941Z,15.84
2022-08-14T02:11:25.685Z,15.81
2022-08-14T02:14:07.015Z,15.78
2022-08-14T02:16:39.528Z,15.76
2022-08-14T02:19:14.985Z,15.73
2022-08-14T02:21:48.781Z,15.69
2022-08-14T02:24:39.290Z,15.65
2022-08-14T02:28:22.507Z,15.60
2022-08-14T02:30:01.953Z,15.57
2022-08-14T02:32:36.515Z,15.54
2022-08-14T02:35:13.968Z,15.51
2022-08-14T02:37:47.115Z,15.48
2022-08-14T02:40:32.231Z,15.47
2022-08-14T02:43:03.968Z,15.45
2022-08-14T02:45:38.447Z,15.43
2022-08-14T02:49:05.472Z,15.43
2022-08-14T02:51:05.502Z,15.43
2022-08-14T02:53:34.149Z,15.42
2022-08-14T02:56:29.723Z,15.42
2022-08-14T02:58:57.191Z,15.42
2022-08-14T03:01:31.269Z,15.41
2022-08-14T03:04:13.551Z,15.38
2022-08-14T03:07:06.379Z,15.35
2022-08-14T03:09:42.066Z,15.33
2022-08-14T03:12:31.699Z,15.30
2022-08-14T03:15:13.979Z,15.28
2022-08-14T03:17:57.673Z,15.25
2022-08-14T03:20:29.034Z,15.22
2022-08-14T03:23:00.100Z,15.21
2022-08-14T03:25:33.511Z,15.19
2022-08-14T03:28:07.765Z,15.18
2022-08-14T03:30:42.747Z,15.16
2022-08-14T03:33:13.093Z,15.13
2022-08-14T03:35:59.809Z,15.14
2022-08-14T03:39:13.666Z,15.13
2022-08-14T03:41:24.703Z,15.13
2022-08-14T03:45:26.937Z,15.12
2022-08-14T03:46:52.426Z,15.12
2022-08-14T03:49:29.412Z,15.11
2022-08-14T03:52:00.709Z,15.11
2022-08-14T03:54:29.716Z,15.12
2022-08-14T03:57:02.688Z,15.15
2022-08-14T03:59:35.434Z,15.17
2022-08-14T04:02:09.545Z,15.20
2022-08-14T04:04:53.573Z,15.23
2022-08-14T04:07:22.687Z,15.27
2022-08-14T04:09:50.852Z,15.30
2022-08-14T04:12:26.412Z,15.33
2022-08-14T04:14:54.934Z,15.37
2022-08-14T04:17:23.123Z,15.41
2022-08-14T04:19:52.310Z,15.47
2022-08-14T04:22:22.224Z,15.58
2022-08-14T04:24:51.557Z,15.75
2022-08-14T04:27:21.302Z,15.87
2022-08-14T04:29:49.333Z,15.97
2022-08-14T04:33:01.232Z,16.12
2022-08-14T04:35:10.581Z,16.33
2022-08-14T04:37:57.950Z,16.54
2022-08-14T04:40:44.454Z,16.84
2022-08-14T04:43:39.252Z,17.12
2022-08-14T04:46:56.734Z,17.39
2022-08-14T04:49:07.902Z,17.56
2022-08-14T04:51:37.287Z,17.69
2022-08-14T04:54:17.235Z,17.86
2022-08-14T04:56:45.536Z,18.00
2022-08-14T04:59:13.704Z,18.11
2022-08-14T05:01:48.887Z,18.19
2022-08-14T05:04:21.829Z,18.25
2022-08-14T05:06:53.661Z,18.30
2022-08-14T05:09:24.373Z,18.34
2022-08-14T05:11:53.200Z,18.40
2022-08-14T05:14:46.273Z,18.46
2022-08-14T05:17:12.370Z,18.55
2022-08-14T05:19:44.964Z,18.63
2022-08-14T05:22:28.521Z,18.75
2022-08-14T05:24:56.525Z,18.89
2022-08-14T05:27:24.603Z,19.08
2022-08-14T05:29:56.988Z,19.32
2022-08-14T05:32:27.722Z,19.59
2022-08-14T05:34:58.662Z,19.86
2022-08-14T05:37:29.719Z,20.14
2022-08-14T05:40:00.455Z,20.44
2022-08-14T05:42:34.311Z,20.72
2022-08-14T05:45:04.749Z,20.96
2022-08-14T05:47:39.362Z,21.20
2022-08-14T05:50:18.539Z,21.42
2022-08-14T05:52:51.057Z,21.62
2022-08-14T05:55:22.680Z,21.79
2022-08-14T05:57:59.764Z,21.95
2022-08-14T06:00:36.853Z,22.12
2022-08-14T06:03:09.998Z,22.32
2022-08-14T06:05:40.062Z,22.55
2022-08-14T06:08:41.379Z,22.73
2022-08-14T06:11:14.861Z,22.82
2022-08-14T06:13:48.575Z,23.01
2022-08-14T06:16:18.744Z,23.17
2022-08-14T06:18:52.929Z,23.29
2022-08-14T06:21:23.055Z,23.45
2022-08-14T06:23:51.763Z,23.63
2022-08-14T06:26:22.446Z,23.83
2022-08-14T06:28:52.404Z,24.02
2022-08-14T06:31:22.995Z,24.25
2022-08-14T06:35:09.671Z,24.51
2022-08-14T06:36:40.455Z,24.75
2022-08-14T06:39:10.219Z,24.99
2022-08-14T06:41:58.042Z,25.13
2022-08-14T06:44:32.553Z,25.29
2022-08-14T06:47:03.438Z,25.48
2022-08-14T06:49:39.996Z,25.64
2022-08-14T06:52:08.706Z,25.85
2022-08-14T06:54:36.819Z,26.06
2022-08-14T06:57:05.377Z,26.24
2022-08-14T06:59:35.424Z,26.40
2022-08-14T07:02:21.816Z,26.58
2022-08-14T07:05:09.199Z,26.75
2022-08-14T07:07:39.664Z,26.90
2022-08-14T07:10:16.953Z,27.04
2022-08-14T07:13:01.779Z,27.24
2022-08-14T07:15:39.575Z,27.51
2022-08-14T07:18:10.766Z,27.75
2022-08-14T07:20:40.757Z,27.98
2022-08-14T07:23:20.112Z,28.21
2022-08-14T07:25:51.947Z,28.42
2022-08-14T07:28:28.488Z,28.52
2022-08-14T07:31:04.607Z,28.67
2022-08-14T07:33:49.993Z,28.92
2022-08-14T07:36:27.189Z,29.15
2022-08-14T07:39:03.368Z,29.36
2022-08-14T07:41:42.278Z,29.45
2022-08-14T07:44:29.390Z,29.52
2022-08-14T07:47:01.951Z,29.54
2022-08-14T07:49:34.347Z,29.56
2022-08-14T07:52:03.391Z,29.59
2022-08-14T07:54:31.789Z,29.64
2022-08-14T07:57:12.367Z,29.75
2022-08-14T07:59:44.708Z,29.89
2022-08-14T08:02:19.708Z,29.92
2022-08-14T08:04:58.916Z,30.03
2022-08-14T08:07:31.485Z,30.16
2022-08-14T08:10:00.847Z,30.33
2022-08-14T08:12:31.181Z,30.45
2022-08-14T08:15:05.465Z,30.47
2022-08-14T08:17:38.482Z,30.41
2022-08-14T08:20:11.486Z,30.38
2022-08-14T08:22:43.470Z,30.38
2022-08-14T08:25:21.016Z,30.49
2022-08-14T08:27:58.061Z,30.66
2022-08-14T08:30:27.426Z,30.68
2022-08-14T08:32:58.989Z,30.65
2022-08-14T08:35:46.585Z,30.54
2022-08-14T08:39:18.619Z,30.46
2022-08-14T08:41:12.937Z,30.55
2022-08-14T08:43:46.116Z,30.67
2022-08-14T08:46:21.404Z,30.79
2022-08-14T08:51:33.444Z,30.93
2022-08-14T08:54:06.642Z,30.93
2022-08-14T08:56:42.831Z,30.93
2022-08-14T08:59:34.425Z,31.01
2022-08-14T09:02:10.144Z,31.21
2022-08-14T09:04:45.768Z,31.43
2022-08-14T09:07:28.206Z,31.56
2022-08-14T09:09:59.512Z,31.65
2022-08-14T09:12:31.563Z,31.71
2022-08-14T09:15:03.908Z,31.80
2022-08-14T09:17:43.816Z,32.02
2022-08-14T09:20:12.949Z,32.20
2022-08-14T09:22:47.802Z,32.32
2022-08-14T09:25:19.874Z,32.38
2022-08-14T09:28:06.789Z,32.40
2022-08-14T09:30:39.447Z,32.50
2022-08-14T09:33:17.433Z,32.62
2022-08-14T09:35:59.478Z,32.68
2022-08-14T09:38:50.949Z,32.72
2022-08-14T09:42:20.542Z,32.81
2022-08-14T09:45:07.956Z,32.70
2022-08-14T09:47:49.125Z,32.57
2022-08-14T09:50:30.164Z,32.46
2022-08-14T09:53:02.648Z,32.25
2022-08-14T09:55:42.408Z,31.83
2022-08-14T09:58:19.854Z,31.58
2022-08-14T10:01:00.779Z,31.42
2022-08-14T10:03:36.007Z,31.39
2022-08-14T10:06:09.506Z,31.52
2022-08-14T10:09:03.245Z,31.75
2022-08-14T10:11:36.605Z,32.05
2022-08-14T10:14:21.073Z,32.31
2022-08-14T10:17:07.124Z,32.65
2022-08-14T10:19:48.874Z,32.91
2022-08-14T10:23:13.150Z,32.98
2022-08-14T10:25:18.205Z,33.12
2022-08-14T10:27:57.902Z,33.40
2022-08-14T10:30:36.649Z,33.67
2022-08-14T10:33:04.924Z,33.88
2022-08-14T10:35:48.182Z,34.13
2022-08-14T10:38:27.919Z,34.23
2022-08-14T10:40:59.201Z,34.25
2022-08-14T10:43:27.755Z,34.29
2022-08-14T10:46:21.614Z,34.31
2022-08-14T10:49:05.018Z,34.20
2022-08-14T10:51:39.809Z,34.12
2022-08-14T10:54:17.194Z,34.12
2022-08-14T10:57:25.107Z,34.09
2022-08-14T11:00:14.660Z,34.00
2022-08-14T11:03:13.419Z,33.84
2022-08-14T11:05:55.537Z,33.63
2022-08-14T11:08:32.961Z,33.48
2022-08-14T11:11:05.618Z,33.42
2022-08-14T11:13:34.606Z,33.47
2022-08-14T11:16:02.974Z,33.56
2022-08-14T11:18:39.903Z,33.68
2022-08-14T11:21:10.491Z,33.71
2022-08-14T11:23:41.102Z,33.87
2022-08-14T11:26:16.728Z,34.14
2022-08-14T11:28:49.664Z,34.36
2022-08-14T11:31:22.250Z,34.56
2022-08-14T11:33:55.560Z,34.72
2022-08-14T11:36:35.444Z,34.67
2022-08-14T11:39:34.852Z,34.53
2022-08-14T11:42:57.773Z,34.44
2022-08-14T11:45:00.198Z,34.36
2022-08-14T11:47:35.361Z,34.56
2022-08-14T11:50:33.914Z,34.83
2022-08-14T11:53:22.841Z,35.14
2022-08-14T11:56:05.478Z,35.29
2022-08-14T11:58:36.959Z,35.11
2022-08-14T12:01:08.500Z,35.01
2022-08-14T12:03:51.264Z,34.94
2022-08-14T12:06:28.701Z,34.86
2022-08-14T12:09:04.066Z,34.73
2022-08-14T12:11:47.035Z,34.60
2022-08-14T12:14:30.825Z,34.38
2022-08-14T12:17:12.146Z,34.50
2022-08-14T12:19:50.715Z,34.72
2022-08-14T12:22:32.590Z,34.91
2022-08-14T12:25:10.664Z,34.94
2022-08-14T12:27:52.648Z,34.82
2022-08-14T12:30:35.984Z,34.78
2022-08-14T12:33:23.894Z,34.69
2022-08-14T12:35:57.568Z,34.52
2022-08-14T12:38:43.494Z,34.42
2022-08-14T12:41:24.123Z,34.30
2022-08-14T12:44:06.269Z,34.13
2022-08-14T12:46:46.837Z,33.93
2022-08-14T12:49:17.669Z,33.76
2022-08-14T12:52:00.310Z,33.57
2022-08-14T12:54:32.353Z,33.36
2022-08-14T12:57:08.177Z,33.15
2022-08-14T12:59:37.111Z,32.97
2022-08-14T13:02:30.012Z,32.80
2022-08-14T13:04:59.235Z,32.67
2022-08-14T13:07:32.916Z,32.57
2022-08-14T13:10:12.901Z,32.37
2022-08-14T13:13:13.217Z,32.11
2022-08-14T13:15:48.541Z,31.92
2022-08-14T13:18:46.632Z,31.83
2022-08-14T13:21:14.907Z,31.83
2022-08-14T13:23:46.012Z,31.85
2022-08-14T13:26:17.660Z,31.87
2022-08-14T13:29:02.565Z,31.93
2022-08-14T13:31:35.586Z,31.97
2022-08-14T13:34:04.580Z,32.06
2022-08-14T13:36:51.654Z,32.20
2022-08-14T13:39:23.462Z,32.45
2022-08-14T13:41:55.782Z,32.68
2022-08-14T13:44:27.336Z,32.93
2022-08-14T13:46:55.786Z,33.16
2022-08-14T13:49:24.331Z,33.39
2022-08-14T13:51:57.790Z,33.44
2022-08-14T13:54:30.207Z,33.32
2022-08-14T13:57:03.651Z,33.44
2022-08-14T13:59:37.363Z,33.57
2022-08-14T14:02:08.187Z,33.72
2022-08-14T14:04:49.398Z,33.86
2022-08-14T14:07:23.573Z,33.98
2022-08-14T14:09:58.015Z,34.06
2022-08-14T14:12:38.550Z,34.16
2022-08-14T14:15:13.892Z,34.20
2022-08-14T14:17:43.999Z,34.13
2022-08-14T14:20:35.681Z,34.10
2022-08-14T14:23:11.945Z,34.14
2022-08-14T14:25:48.628Z,34.16
2022-08-14T14:28:24.480Z,34.20
2022-08-14T14:30:57.218Z,34.32
2022-08-14T14:33:46.857Z,34.36
2022-08-14T14:36:21.504Z,34.35
2022-08-14T14:38:56.245Z,34.27
2022-08-14T14:41:26.732Z,34.16
2022-08-14T14:44:09.187Z,34.00
2022-08-14T14:46:41.638Z,33.84
2022-08-14T14:49:14.867Z,33.67
2022-08-14T14:51:51.369Z,33.44
2022-08-14T14:54:30.853Z,33.26
2022-08-14T14:57:02.354Z,33.07
2022-08-14T14:59:33.360Z,32.88
2022-08-14T15:02:08.151Z,32.67
2022-08-14T15:04:43.585Z,32.45
2022-08-14T15:07:13.213Z,32.23
2022-08-14T15:09:44.772Z,32.05
2022-08-14T15:12:56.435Z,31.81
2022-08-14T15:15:08.506Z,31.41
2022-08-14T15:17:41.484Z,31.07
2022-08-14T15:20:17.517Z,30.73
2022-08-14T15:23:11.669Z,30.38
2022-08-14T15:25:42.114Z,30.07
2022-08-14T15:28:12.718Z,29.86
2022-08-14T15:30:51.068Z,29.52
2022-08-14T15:34:13.144Z,29.10
2022-08-14T15:36:35.359Z,28.63
2022-08-14T15:39:04.727Z,28.17
2022-08-14T15:41:41.608Z,27.77
2022-08-14T15:44:24.646Z,27.53
2022-08-14T15:46:56.301Z,27.36
2022-08-14T15:49:34.566Z,27.18
2022-08-14T15:52:05.062Z,26.90
2022-08-14T15:54:34.152Z,26.62
2022-08-14T15:57:09.009Z,26.37
2022-08-14T15:59:58.383Z,26.14
2022-08-14T16:02:29.577Z,25.93
2022-08-14T16:04:57.676Z,25.70
2022-08-14T16:07:26.920Z,25.46
2022-08-14T16:10:27.644Z,25.07
2022-08-14T16:12:47.827Z,24.71
2022-08-14T16:15:16.702Z,24.44
2022-08-14T16:17:46.002Z,24.20
2022-08-14T16:20:42.236Z,23.98
2022-08-14T16:25:53.012Z,23.55
2022-08-14T16:28:26.985Z,23.40
2022-08-14T16:30:56.252Z,23.25
2022-08-14T16:33:27.919Z,23.13
2022-08-14T16:36:30.363Z,23.00
2022-08-14T16:39:02.046Z,22.86
2022-08-14T16:40:24.218Z,23.74
2022-08-14T16:41:31.076Z,22.73
2022-08-14T16:44:13.731Z,22.61
2022-08-14T16:46:57.179Z,22.47
2022-08-14T16:50:03.404Z,22.35
2022-08-14T16:52:26.346Z,22.18
2022-08-14T16:55:07.593Z,21.94
2022-08-14T16:57:50.416Z,21.66
2022-08-14T17:00:28.656Z,21.43
2022-08-14T17:03:01.657Z,21.23
2022-08-14T17:05:30.969Z,21.04
2022-08-14T17:08:28.481Z,20.95
2022-08-14T17:10:52.177Z,20.85
2022-08-14T17:13:58.518Z,20.76
2022-08-14T17:16:24.948Z,20.68
2022-08-14T17:19:00.869Z,20.61
2022-08-14T17:21:41.788Z,20.53
2022-08-14T17:24:56.878Z,20.44
2022-08-14T17:29:57.302Z,20.27
2022-08-14T17:32:56.620Z,20.23
2022-08-14T17:35:57.629Z,20.19
2022-08-14T17:38:38.831Z,20.15
2022-08-14T17:41:27.208Z,20.10
2022-08-14T17:44:33.984Z,20.07
2022-08-14T17:47:14.754Z,20.07
2022-08-14T17:49:52.305Z,20.05
2022-08-14T17:52:35.988Z,20.03
2022-08-14T17:56:01.429Z,20.02
2022-08-14T17:58:02.111Z,20.00
2022-08-14T18:00:51.486Z,19.99
2022-08-14T18:03:50.632Z,19.97
2022-08-14T18:06:40.010Z,19.94
2022-08-14T18:08:59.228Z,19.91
2022-08-14T18:11:45.805Z,19.88
2022-08-14T18:14:31.549Z,19.84
2022-08-14T18:17:02.379Z,19.81
2022-08-14T18:19:35.194Z,19.77
2022-08-14T18:22:23.810Z,19.75
2022-08-14T18:24:56.938Z,19.73
2022-08-14T18:27:37.815Z,19.72
2022-08-14T18:30:33.513Z,19.70
2022-08-14T18:33:12.908Z,19.69
2022-08-14T18:35:58.622Z,19.67
2022-08-14T18:38:46.366Z,19.64
2022-08-14T18:41:36.267Z,19.62
2022-08-14T18:44:10.857Z,19.59
2022-08-14T18:47:15.982Z,19.57
2022-08-14T18:49:57.770Z,19.54
2022-08-14T18:52:38.135Z,19.52
2022-08-14T18:55:20.711Z,19.49
2022-08-14T18:57:55.203Z,19.46
2022-08-14T19:00:32.959Z,19.43
2022-08-14T19:03:04.389Z,19.41
2022-08-14T19:05:47.405Z,19.39
2022-08-14T19:08:28.265Z,19.36
2022-08-14T19:11:04.213Z,19.33
2022-08-14T19:13:47.853Z,19.28
2022-08-14T19:16:23.252Z,19.24
2022-08-14T19:19:00.500Z,19.21
2022-08-14T19:21:41.013Z,19.18
2022-08-14T19:24:44.126Z,19.14
2022-08-14T19:27:19.309Z,19.11
2022-08-14T19:29:51.286Z,19.09
2022-08-14T19:32:36.524Z,19.08
2022-08-14T19:35:48.879Z,19.04
2022-08-14T19:38:53.814Z,19.02
2022-08-14T19:41:34.476Z,18.99
2022-08-14T19:44:10.640Z,18.97
2022-08-14T19:47:02.841Z,18.94
2022-08-14T19:50:07.929Z,18.90
2022-08-14T19:52:29.858Z,18.87
2022-08-14T19:55:15.084Z,18.82
2022-08-14T19:57:43.218Z,18.78
2022-08-14T20:00:29.034Z,18.74
2022-08-14T20:03:10.651Z,18.66
2022-08-14T20:05:45.340Z,18.57
2022-08-14T20:11:00.608Z,18.49
2022-08-14T20:11:20.821Z,18.42
2022-08-14T20:13:58.037Z,18.35
2022-08-14T20:16:32.644Z,18.30
2022-08-14T20:19:15.361Z,18.25
2022-08-14T20:22:04.388Z,18.20
2022-08-14T20:24:43.672Z,18.16
2022-08-14T20:27:33.314Z,18.14
2022-08-14T20:30:28.285Z,18.11
2022-08-14T20:32:55.317Z,18.09
2022-08-14T20:35:35.785Z,18.07
2022-08-14T20:38:30.694Z,18.05
2022-08-14T20:41:05.794Z,18.02
2022-08-14T20:43:56.281Z,17.99
2022-08-14T20:46:29.801Z,17.96
2022-08-14T20:49:06.541Z,17.94
2022-08-14T20:51:54.702Z,17.92
2022-08-14T20:54:34.505Z,17.90
2022-08-14T20:57:17.603Z,17.88
2022-08-14T20:59:53.390Z,17.87
2022-08-14T21:02:46.644Z,17.86
2022-08-14T21:05:33.567Z,17.85
2022-08-14T21:08:07.866Z,17.84
2022-08-14T21:10:43.920Z,17.83
2022-08-14T21:13:29.101Z,17.81
2022-08-14T21:16:32.959Z,17.77
2022-08-14T21:19:02.023Z,17.72
2022-08-14T21:21:40.743Z,17.67
2022-08-14T21:24:38.526Z,17.63
2022-08-14T21:27:12.876Z,17.59
2022-08-14T21:29:54.084Z,17.57
2022-08-14T21:32:35.144Z,17.54
2022-08-14T21:35:08.555Z,17.52
2022-08-14T21:37:46.076Z,17.51
2022-08-14T21:40:40.368Z,17.49
2022-08-14T21:43:17.589Z,17.47
2022-08-14T21:45:54.020Z,17.45
2022-08-14T21:48:29.448Z,17.43
2022-08-14T21:51:55.001Z,17.41
2022-08-14T21:53:54.115Z,17.39
2022-08-14T21:56:38.686Z,17.38
2022-08-14T21:59:18.378Z,17.37
2022-08-14T22:02:00.400Z,17.37
2022-08-14T22:04:40.017Z,17.36
2022-08-14T22:07:17.389Z,17.35
2022-08-14T22:09:55.494Z,17.33
2022-08-14T22:12:57.298Z,17.31
2022-08-14T22:15:17.171Z,17.28
2022-08-14T22:17:52.361Z,17.25
2022-08-14T22:20:25.734Z,17.23
2022-08-14T22:22:55.932Z,17.22
2022-08-14T22:25:33.424Z,17.21
2022-08-14T22:28:09.916Z,17.19
2022-08-14T22:30:41.806Z,17.18
2022-08-14T22:33:13.401Z,17.18
2022-08-14T22:35:42.841Z,17.19
2022-08-14T22:38:35.406Z,17.19
2022-08-14T22:41:25.093Z,17.19
2022-08-14T22:43:51.778Z,17.18
2022-08-14T22:46:21.993Z,17.18
2022-08-14T22:48:51.712Z,17.18
2022-08-14T22:51:22.550Z,17.18
2022-08-14T22:53:53.502Z,17.18
2022-08-14T22:56:29.386Z,17.18
2022-08-14T22:59:01.454Z,17.18
2022-08-14T23:01:56.637Z,17.18
2022-08-14T23:04:35.290Z,17.17
2022-08-14T23:07:21.997Z,17.16
2022-08-14T23:10:31.171Z,17.15
2022-08-14T23:12:54.494Z,17.14
2022-08-14T23:15:28.748Z,17.12
2022-08-14T23:17:59.856Z,17.11
2022-08-14T23:20:36.252Z,17.09
2022-08-14T23:23:12.269Z,17.08
2022-08-14T23:25:59.341Z,17.04
2022-08-14T23:28:34.157Z,17.02
2022-08-14T23:31:34.547Z,17.01
2022-08-14T23:34:10.619Z,16.99
2022-08-14T23:36:53.428Z,16.97
2022-08-14T23:39:31.444Z,16.95
2022-08-14T23:42:08.449Z,16.93
2022-08-14T23:44:39.026Z,16.92
2022-08-14T23:47:11.647Z,16.90
2022-08-14T23:50:03.282Z,16.87
2022-08-14T23:52:56.391Z,16.84
2022-08-14T23:55:29.864Z,16.82
2022-08-14T23:57:59.317Z,16.79
